Aérodrome :
LOGIN :

S'inscrire | Disclaimer

   EN    FR    IT 

 










Légende :    VFR   VFR Marginal   IFR   IFR Intensif   IFR Très Intensif
Visi : 
Plafond : 
>= 8 km
>= 3000ft
5 à 8 km
1000 à 3000 ft
1500m à 5 km
500 à 1000 ft
800 à 1500m
200 à 500 ft
< 800m
< 200 ft
Symboles :   Orages  Brouillard  Fortes neiges  Fortes précipitations  Vent > 20 kt
SIGMETs :   Divers  Orages  Givrage  Turbulence  Onde Orograph.  Cendres Volcan.







- Altitude de l'aérodrome : 580 ft
- Voir les cartes d'approche


LFOA - Avord

DERNIER METAR :
  • 211000Z AUTO VRB03KT CAVOK 23/10 Q1023 NOSIG

METARs EXPIRÉS :
  • 210930Z AUTO VRB03KT CAVOK 23/09 Q1023 NOSIG
  • 210900Z AUTO 21004KT 170V270 CAVOK 22/09 Q1024 NOSIG
  • 210830Z AUTO 18004KT 140V250 CAVOK 21/10 Q1024 NOSIG
  • 210800Z AUTO 17003KT 110V200 9999 FEW042 SCT052 20/10 Q1024 NOSIG
  • 210730Z AUTO VRB03KT 9999 SCT042 19/11 Q1024 NOSIG

TAF TAF LFOA
Valide du 21 à 09h jusqu'au 22 à 09h UTC


210800Z 2109/2209 VRB03KT CAVOK
BECMG 2207/2208 12010KT
Pas de NOTAMs connus pour ce terrain.



MET'MAP, la Météo Aéronautique d'un coup d'oeil ! - Copyright ORBIFLY Décembre 2007 - Disclaimer

ORBIFLY MET'MAP TEAM :

Programmation & Développement : Alexandra Zaïnal
Conception & Développement : Baudouin d'Aumeries
Co-Programmation & Développement : Marc-Olivier Méhu
Soutien technique & logistique : Manuel Goepfert

Contact : metmap@orbifly.com




SOURCES & CREDITS :

   NOAA